x

South Hatteras - 225 South Of Cape Hatteras (41002) Wave Buoy

1:50 - Tue 25th Jul 2017 All times are EDT. -4 hours from GMT.

  • Sig Wave height 5.2ft
  • Swell Direction
  • Peak Period 6s
  • Average Period 5s
  • Wind
    16mph, 20mph gusts
  • Sea Temp 83°f
  • Air Temp 80°f
  • Sea Pressure 1020.1mb
  • South Hatteras - 225 South Of Cape Hatteras
  • South Hatteras - 225 South Of Cape Hatteras

More Historic Weather Station data

Upgrade to MSW Pro to gain access to the past 30 days of data for over 8000 Wavebouys and Weather Stations around the globe.

Join Pro

Comparision Forecast

View Surf forecast
   
mar. 07/25 1:50 5ft 6s 5s 16 20 mph 1020.1mb 83f 80f
12:50 4.5ft 6s 5s 25 29 mph 1021.1mb 83f 78f
11:50 4.5ft 6s 5s 16 18 mph 1020.7mb 83f 83f
10:50 4.5ft 6s 5s 16 18 mph 1020.3mb 83f 84f
9:50 4.5ft 6s 5s 18 20 mph 1020.2mb 83f 83f
8:50 4.5ft 6s 5s 20 22 mph 1019.8mb 83f 83f
7:50 4.5ft 6s 5s 18 22 mph 1019.3mb 83f 83f
6:50 4.5ft 5s 5s 16 20 mph 1019mb 83f 83f
5:50 4.5ft 6s 5s 18 20 mph 1018.9mb 83f 83f
4:50 4.5ft 7s 5s 20 22 mph 1018.4mb 83f 83f
3:50 4.5ft 7s 5s 20 22 mph 1018.2mb 83f 83f
2:50 5ft 6s 5s 18 20 mph 1018.7mb 83f 83f
1:50 5ft 7s 5s 16 18 mph 1019mb 83f 83f
12:50 5ft 7s 5s 18 20 mph 1019.2mb 83f 83f
lun. 07/24 11:50 5ft 7s 5s 16 20 mph 1019.2mb 83f 83f
10:50 5ft 7s 5s 18 20 mph 1019.1mb 83f 83f
9:50 5.5ft 7s 5s 18 22 mph 1018.4mb 83f 83f
8:50 5ft 7s 5s 16 18 mph 1018.1mb 83f 82f
7:50 5ft 6s 5s 11 13 mph 1018mb 83f 82f
6:50 5ft 6s 5s 13 13 mph 1017.7mb 83f 81f
5:50 5.5ft 6s 5s 16 18 mph 1017.7mb 83f 80f
4:50 5.5ft 6s 5s 18 20 mph 1018.3mb 83f 80f
3:50 5ft 6s 5s 18 22 mph 1018.1mb 83f 83f
2:50 4.5ft 6s 5s 20 22 mph 1018mb 83f 83f
1:50 5ft 6s 5s 18 20 mph 1018.1mb 83f 83f
12:50 5ft 6s 5s 16 18 mph 1018.5mb 83f 83f
11:50 5ft 6s 5s 20 22 mph 1018.4mb 83f 83f
10:50 5ft 7s 5s 18 22 mph 1018.3mb 83f 83f
9:50 5.5ft 6s 5s 20 22 mph 1017.7mb 83f 83f
8:50 5ft 6s 5s 18 22 mph 1017.8mb 83f 82f
7:50 5.5ft 7s 5s 20 25 mph 1017.2mb 83f 83f
6:50 5ft 6s 5s 22 25 mph 1016.7mb 83f 83f
5:50 5ft 5s 5s 20 22 mph 1016.3mb 83f 82f
4:50 4.5ft 6s 5s 25 34 mph 1015.9mb 83f 80f
3:50 5ft 7s 5s 20 22 mph 1015.7mb 83f 83f
2:50 4.5ft 6s 5s 18 22 mph 1016mb 83f 83f
1:50 4.5ft 6s 5s 18 20 mph 1016.6mb 83f 83f
12:50 5ft 6s 5s 18 20 mph 1017.1mb 83f 83f
dim. 07/23 11:50 5ft 6s 5s 16 18 mph 1017.1mb 83f 83f
10:50 5ft 6s 5s 18 20 mph 1017.3mb 83f 83f
9:50 5ft 6s 5s 18 20 mph 1016.9mb 83f 83f
8:50 5ft 6s 5s 20 25 mph 1016.4mb 83f 83f
7:50 5ft 6s 5s 18 20 mph 1015.9mb 83f 83f
6:50 5.5ft 9s 5s 18 20 mph 1015.9mb 83f 83f
5:50 5ft 6s 5s 20 22 mph 1015.9mb 84f 83f
4:50 5ft 6s 5s 20 25 mph 1016.3mb 84f 83f
3:50 4.5ft 6s 5s 20 22 mph 1016.4mb 84f 84f
2:50 4.5ft 6s 5s 18 22 mph 1017mb 84f 83f
1:50 5ft 6s 5s 18 20 mph 1017.1mb 84f 82f
12:50 5ft 6s 5s 18 20 mph 1017.3mb 84f 82f
11:50 4.5ft 6s 5s 20 25 mph 1017.7mb 84f 83f
10:50 4.5ft 6s 5s 20 25 mph 1017.2mb 83f 84f
9:50 4.5ft 5s 5s 18 22 mph 1017mb 83f 83f
8:50 4.5ft 6s 5s 18 22 mph 1017mb 83f 84f
7:50 4.5ft 5s 5s 20 25 mph 1016.6mb 83f 83f
6:50 4.5ft 5s 5s 20 22 mph 1016.5mb 83f 83f
5:50 4.5ft 9s 5s 20 22 mph 1016mb 83f 83f
4:50 4.5ft 9s 5s 20 25 mph 1015.4mb 83f 83f
3:50 4.5ft 5s 5s 20 22 mph 1015.5mb 83f 83f
2:50 5ft 9s 5s 18 22 mph 1016.4mb 83f 83f
1:50 4.5ft 9s 5s 18 20 mph 1016.9mb 83f 83f
12:50 4.5ft 9s 5s 20 22 mph 1017.1mb 83f 84f
sam. 07/22 11:50 4.5ft 8s 5s 18 22 mph 1017.3mb 83f 83f
10:50 4.5ft 8s 5s 18 22 mph 1017.4mb 83f 84f
9:50 4.5ft 9s 5s 20 22 mph 1017.3mb 84f 84f
8:50 4ft 9s 5s 20 22 mph 1017.2mb 84f 84f
7:50 4ft 8s 5s 18 20 mph 1016.8mb 84f 83f
6:50 4ft 10s 5s 16 20 mph 1016.5mb 84f 84f
5:50 4.5ft 9s 5s 16 18 mph 1016.5mb 84f 84f
4:50 4ft 9s 5s 16 18 mph 1017.1mb 84f 83f
3:50 3.5ft 9s 5s 16 18 mph 1017.6mb 84f 84f
2:50 3.5ft 10s 5s 16 18 mph 1018.4mb 84f 83f
1:50 3.5ft 9s 5s 13 16 mph 1018.9mb 84f 84f
12:50 3.5ft 9s 6s 13 16 mph 1019.4mb 84f 83f
11:50 3.5ft 9s 5s 13 13 mph 1019.6mb 84f 83f
10:50 3.5ft 10s 6s 13 16 mph 1019.6mb 83f 83f
9:50 4ft 9s 6s 13 16 mph 1019.2mb 83f 83f
8:50 3.5ft 9s 5s 11 16 mph 1018.9mb 83f 82f
7:50 3.5ft 10s 6s 16 18 mph 1018.6mb 83f 83f
6:50 4ft 10s 6s 13 16 mph 1018.1mb 83f 83f
5:50 3.5ft 8s 6s 13 16 mph 1017.7mb 83f 82f
4:50 4.5ft 9s 6s 13 16 mph 1017.5mb 83f 82f
3:50 3.5ft 8s 5s 16 18 mph 1017.3mb 83f 82f
2:50 4ft 9s 5s 16 18 mph 1017.5mb 83f 82f
1:50 4ft 10s 6s 13 18 mph 1018mb 84f 82f
12:50 3.5ft 10s 5s 16 20 mph 1018.5mb 83f 82f
ven. 07/21 11:50 4ft 8s 6s 16 18 mph 1018.6mb 84f 82f
10:50 3.5ft 9s 6s 16 18 mph 1018.7mb 84f 83f
9:50 3.5ft 10s 6s 16 18 mph 1018.7mb 84f 83f
8:50 3.5ft 8s 6s 9 11 mph 1018.4mb 84f 83f
7:50 3.5ft 10s 6s 11 13 mph 1018.3mb 84f 83f